Time;durP1;ratioP1;P1;durP2;ratioP2;P2;SDS_P1;SDS_P2;PMS_P1;PMS_P2;Temp;Humidity;BMP_temperature;BMP_pressure;BME280_temperature;BME280_humidity;BME280_pressure;Samples;Min_cycle;Max_cycle;Signal;HPM_P1;HPM_P2
2022/12/02 00:00:20;;;;;;;19.55;13.18;;;;;;;5.79;70.65;100344.16;1086636;54;20090;-80
2022/12/02 00:01:24;;;;;;;19.20;13.32;;;;;;;5.84;70.57;100341.16;1086310;54;20057;-79
2022/12/02 00:02:28;;;;;;;21.40;14.57;;;;;;;5.80;70.62;100337.88;1086053;54;20046;-79
2022/12/02 00:03:36;;;;;;;21.38;14.45;;;;;;;5.75;70.79;100342.66;1086385;54;20042;-78
2022/12/02 00:04:38;;;;;;;20.63;14.48;;;;;;;5.63;70.98;100341.69;1086988;54;20046;-80
2022/12/02 00:05:43;;;;;;;24.58;15.45;;;;;;;5.60;71.33;100341.91;1087256;54;20031;-80
2022/12/02 00:06:50;;;;;;;21.67;14.70;;;;;;;5.59;71.38;100342.84;1087487;54;20018;-79
2022/12/02 00:07:52;;;;;;;24.20;15.30;;;;;;;5.54;71.62;100334.38;1087850;47;20098;-80
2022/12/02 00:09:18;;;;;;;22.67;14.07;;;;;;;5.52;71.45;100341.59;1087654;54;20090;-79
2022/12/02 00:10:23;;;;;;;23.65;15.13;;;;;;;5.47;71.75;100334.81;1087822;54;20379;-78
2022/12/02 00:11:30;;;;;;;23.05;15.15;;;;;;;5.45;71.59;100336.72;1088362;47;20025;-77
2022/12/02 00:12:32;;;;;;;23.13;14.57;;;;;;;5.50;71.94;100336.38;1091193;47;20046;-78
2022/12/02 00:13:42;;;;;;;22.77;14.55;;;;;;;5.53;71.60;100332.69;1087315;54;20049;-77
2022/12/02 00:14:43;;;;;;;20.30;13.75;;;;;;;5.51;71.66;100339.88;1086924;54;20050;-78
2022/12/02 00:15:49;;;;;;;22.38;14.75;;;;;;;5.44;71.95;100329.69;1086387;54;20035;-78
2022/12/02 00:16:51;;;;;;;21.17;14.35;;;;;;;5.50;71.86;100336.38;1086790;39;20529;-78
2022/12/02 00:17:55;;;;;;;23.73;13.27;;;;;;;5.61;71.50;100333.00;1086331;54;20039;-78
2022/12/02 00:18:57;;;;;;;20.35;14.20;;;;;;;5.63;71.31;100328.44;1086239;54;20038;-76
2022/12/02 00:20:01;;;;;;;20.27;12.80;;;;;;;5.62;71.32;100326.72;1086305;54;20030;-77
2022/12/02 00:21:02;;;;;;;20.42;13.82;;;;;;;5.61;71.39;100325.03;1085856;54;20102;-79
2022/12/02 00:22:09;;;;;;;23.17;13.25;;;;;;;5.59;71.11;100337.53;1086044;54;20114;-78
2022/12/02 00:23:11;;;;;;;21.55;14.98;;;;;;;5.54;71.25;100323.78;1086006;54;20038;-80
2022/12/02 00:24:15;;;;;;;19.83;13.98;;;;;;;5.55;71.48;100330.78;1086150;54;20114;-77
2022/12/02 00:25:16;;;;;;;19.42;14.13;;;;;;;5.53;71.23;100330.03;1086137;54;20046;-77
2022/12/02 00:26:22;;;;;;;24.35;15.20;;;;;;;5.53;71.61;100324.72;1086404;54;20054;-78
2022/12/02 00:27:23;;;;;;;19.65;14.05;;;;;;;5.55;71.63;100331.59;1086650;39;21081;-78
2022/12/02 00:28:27;;;;;;;19.27;13.80;;;;;;;5.57;71.21;100328.88;1086592;54;20094;-79
2022/12/02 00:29:29;;;;;;;22.65;14.35;;;;;;;5.57;71.09;100315.59;1086523;54;20054;-76
2022/12/02 00:30:33;;;;;;;22.73;15.90;;;;;;;5.51;71.32;100319.53;1086250;54;20033;-78
2022/12/02 00:31:34;;;;;;;20.27;13.82;;;;;;;5.55;71.41;100315.69;1085866;54;20114;-78
2022/12/02 00:32:38;;;;;;;20.48;13.65;;;;;;;5.50;71.30;100323.13;1086096;54;20053;-77
2022/12/02 00:33:40;;;;;;;21.35;13.32;;;;;;;5.47;71.50;100318.91;1085553;54;20042;-76
2022/12/02 00:34:44;;;;;;;20.67;14.60;;;;;;;5.51;71.30;100318.66;1086019;54;20034;-79
2022/12/02 00:35:46;;;;;;;21.65;14.35;;;;;;;5.46;71.37;100317.19;1086044;54;20065;-79
2022/12/02 00:36:50;;;;;;;22.92;14.48;;;;;;;5.44;71.52;100313.78;1085928;54;20035;-79
2022/12/02 00:37:54;;;;;;;22.17;13.88;;;;;;;5.36;71.99;100326.72;1086035;54;20034;-79
2022/12/02 00:38:58;;;;;;;23.15;15.43;;;;;;;5.37;71.94;100316.97;1086333;47;20034;-79
2022/12/02 00:40:00;;;;;;;21.88;13.98;;;;;;;5.37;71.83;100314.31;1085981;54;20944;-79
2022/12/02 00:41:04;;;;;;;21.73;13.95;;;;;;;5.36;72.02;100321.44;1085800;54;20038;-80
2022/12/02 00:42:05;;;;;;;20.48;13.18;;;;;;;5.41;71.82;100315.81;1086979;31;20634;-80
2022/12/02 00:46:59;;;;;;;20.13;13.95;;;;;;;5.40;72.16;100312.28;1085988;54;21046;-76
2022/12/02 00:48:00;;;;;;;22.25;14.68;;;;;;;5.41;71.84;100311.34;1085952;54;20046;-77
2022/12/02 00:49:08;;;;;;;20.42;13.77;;;;;;;5.43;72.09;100317.41;1085957;54;20043;-80
2022/12/02 00:50:11;;;;;;;20.35;14.07;;;;;;;5.36;72.07;100315.25;1085685;54;20043;-78
2022/12/02 00:51:15;;;;;;;22.70;14.00;;;;;;;5.40;72.04;100314.09;1085831;54;20822;-78
2022/12/02 00:52:16;;;;;;;20.83;14.43;;;;;;;5.41;72.12;100316.63;1085768;54;20050;-79
2022/12/02 00:53:23;;;;;;;21.55;13.20;;;;;;;5.37;72.11;100312.53;1085913;54;20038;-76
2022/12/02 00:54:24;;;;;;;20.77;13.88;;;;;;;5.35;72.32;100314.41;1085893;54;20077;-78
2022/12/02 00:55:28;;;;;;;20.60;13.60;;;;;;;5.37;72.49;100311.66;1087456;39;20536;-79
2022/12/02 00:56:30;;;;;;;20.23;13.23;;;;;;;5.42;72.07;100312.22;1085772;54;20059;-79
2022/12/02 00:57:34;;;;;;;21.70;14.38;;;;;;;5.45;71.94;100302.22;1085913;54;20045;-79
2022/12/02 00:58:36;;;;;;;19.63;13.68;;;;;;;5.41;72.12;100306.03;1085953;54;20205;-79
2022/12/02 00:59:40;;;;;;;22.95;14.95;;;;;;;5.43;72.21;100304.13;1086020;54;20038;-79
2022/12/02 01:00:41;;;;;;;19.67;13.35;;;;;;;5.38;72.14;100303.63;1086334;31;20726;-79
2022/12/02 01:01:45;;;;;;;20.52;13.70;;;;;;;5.33;72.02;100294.28;1085702;54;20098;-79
2022/12/02 01:02:47;;;;;;;21.42;13.93;;;;;;;5.33;72.35;100295.13;1085794;54;20138;-79
2022/12/02 01:03:51;;;;;;;18.40;12.73;;;;;;;5.35;72.32;100298.50;1086196;54;20030;-80
2022/12/02 01:04:53;;;;;;;21.67;13.98;;;;;;;5.33;72.38;100295.13;1087493;39;20839;-78
2022/12/02 01:05:57;;;;;;;23.33;14.73;;;;;;;5.28;72.38;100292.78;1086235;46;20670;-80
2022/12/02 01:07:01;;;;;;;22.02;14.82;;;;;;;5.28;72.39;100290.13;1087545;31;20616;-79
2022/12/02 01:08:03;;;;;;;22.05;13.93;;;;;;;5.31;72.36;100286.41;1085432;54;20793;-78
2022/12/02 01:09:10;;;;;;;20.75;13.65;;;;;;;5.37;72.59;100286.00;1085800;54;20668;-79
2022/12/02 01:10:11;;;;;;;22.25;14.02;;;;;;;5.36;72.58;100288.75;1086514;39;20931;-79
2022/12/02 01:11:16;;;;;;;20.20;14.70;;;;;;;5.37;72.42;100288.66;1085617;54;20042;-78
2022/12/02 01:12:18;;;;;;;20.13;13.27;;;;;;;5.45;72.06;100280.16;1085900;54;20451;-79
2022/12/02 01:13:22;;;;;;;18.02;11.90;;;;;;;5.52;72.26;100288.53;1085817;54;20030;-79
2022/12/02 01:14:24;;;;;;;18.00;11.77;;;;;;;5.59;71.86;100287.16;1086438;39;20767;-79
2022/12/02 01:15:28;;;;;;;21.58;13.48;;;;;;;5.59;71.88;100292.47;1086019;54;20042;-80
2022/12/02 01:16:29;;;;;;;21.15;14.57;;;;;;;5.51;72.00;100281.53;1086442;54;20050;-79
2022/12/02 01:17:33;;;;;;;19.88;14.10;;;;;;;5.41;72.41;100284.00;1086191;54;20038;-78
2022/12/02 01:18:35;;;;;;;20.73;13.65;;;;;;;5.37;72.30;100280.69;1086429;54;20038;-78
2022/12/02 01:19:39;;;;;;;21.58;14.38;;;;;;;5.38;72.55;100287.72;1086380;54;20038;-79
2022/12/02 01:20:40;;;;;;;23.52;13.35;;;;;;;5.42;72.30;100280.38;1086337;54;21053;-79
2022/12/02 01:21:44;;;;;;;21.95;14.15;;;;;;;5.34;72.70;100280.06;1086289;54;20045;-80
2022/12/02 01:22:46;;;;;;;21.75;14.15;;;;;;;5.37;72.52;100278.06;1086399;54;20098;-79
2022/12/02 01:23:50;;;;;;;20.90;14.38;;;;;;;5.40;72.57;100277.00;1086469;54;20046;-80
2022/12/02 01:24:54;;;;;;;19.80;13.60;;;;;;;5.47;72.19;100279.13;1086471;54;20050;-80
2022/12/02 01:25:58;;;;;;;18.55;12.52;;;;;;;5.50;72.01;100285.13;1086429;54;20042;-78
2022/12/02 01:27:00;;;;;;;19.52;13.07;;;;;;;5.53;72.12;100279.63;1086285;54;21089;-79
2022/12/02 01:28:04;;;;;;;20.27;13.75;;;;;;;5.54;72.11;100281.34;1086283;54;20045;-80
2022/12/02 01:29:06;;;;;;;19.67;13.13;;;;;;;5.54;72.11;100276.03;1086454;54;20069;-79
2022/12/02 01:30:11;;;;;;;21.02;14.02;;;;;;;5.59;72.03;100276.53;1086502;54;20126;-82
2022/12/02 01:31:14;;;;;;;19.35;12.73;;;;;;;5.54;72.09;100271.56;1086277;54;20102;-80
2022/12/02 01:32:22;;;;;;;19.45;13.05;;;;;;;5.53;72.21;100279.63;1086298;54;20038;-79
2022/12/02 01:33:23;;;;;;;18.50;13.60;;;;;;;5.55;72.22;100273.25;1086403;54;20098;-78
2022/12/02 01:34:27;;;;;;;19.40;12.93;;;;;;;5.57;71.82;100278.47;1085948;54;20069;-80
2022/12/02 01:35:29;;;;;;;20.00;13.15;;;;;;;5.60;71.90;100275.59;1086421;54;20050;-79
2022/12/02 01:36:33;;;;;;;18.98;13.27;;;;;;;5.53;71.99;100271.69;1086451;54;20043;-78
2022/12/02 01:37:34;;;;;;;19.42;12.07;;;;;;;5.60;72.04;100276.47;1086170;54;20576;-80
2022/12/02 01:38:39;;;;;;;18.42;12.52;;;;;;;5.61;71.71;100278.16;1086630;54;20045;-79
2022/12/02 01:39:40;;;;;;;20.75;13.00;;;;;;;5.57;71.85;100276.66;1086555;54;20054;-79
2022/12/02 01:40:47;;;;;;;19.75;13.88;;;;;;;5.63;71.62;100272.72;1086617;54;20061;-78
2022/12/02 01:41:49;;;;;;;18.13;12.15;;;;;;;5.61;71.82;100272.84;1086353;54;20047;-79
2022/12/02 01:42:54;;;;;;;17.42;12.10;;;;;;;5.68;71.79;100278.56;1086603;54;20034;-79
2022/12/02 01:43:55;;;;;;;16.88;12.02;;;;;;;5.71;71.49;100277.50;1088974;39;20500;-79
2022/12/02 01:44:59;;;;;;;20.30;13.70;;;;;;;5.69;71.54;100274.94;1086412;54;20039;-80
2022/12/02 01:46:01;;;;;;;21.30;13.77;;;;;;;5.63;71.78;100278.03;1086404;54;20046;-79
2022/12/02 01:47:06;;;;;;;20.20;13.05;;;;;;;5.64;71.50;100282.41;1086242;54;20045;-80
2022/12/02 01:48:08;;;;;;;22.27;14.32;;;;;;;5.58;71.62;100274.84;1086513;54;20094;-79
2022/12/02 01:49:12;;;;;;;20.10;13.00;;;;;;;5.59;71.85;100280.06;1086186;54;20568;-79
2022/12/02 01:50:15;;;;;;;19.27;13.07;;;;;;;5.58;71.81;100272.19;1086361;54;20098;-78
2022/12/02 01:51:19;;;;;;;22.83;14.43;;;;;;;5.59;71.78;100271.25;1086326;54;20065;-78
2022/12/02 01:52:21;;;;;;;18.73;12.65;;;;;;;5.59;71.68;100271.25;1086383;54;20061;-78
2022/12/02 01:53:25;;;;;;;18.60;12.57;;;;;;;5.65;71.68;100273.47;1086433;54;20097;-79
2022/12/02 01:54:28;;;;;;;18.35;12.95;;;;;;;5.62;71.62;100273.69;1086317;54;20049;-78
2022/12/02 01:55:34;;;;;;;18.60;12.85;;;;;;;5.66;71.52;100274.31;1086312;54;20938;-78
2022/12/02 01:56:38;;;;;;;17.95;11.85;;;;;;;5.68;71.19;100275.91;1086230;54;20038;-79
2022/12/02 01:57:43;;;;;;;18.50;12.27;;;;;;;5.65;71.24;100270.84;1087374;39;20445;-78
2022/12/02 01:58:45;;;;;;;20.67;13.10;;;;;;;5.68;71.42;100273.25;1086464;54;20054;-79
2022/12/02 01:59:49;;;;;;;18.63;12.68;;;;;;;5.65;71.30;100273.47;1086778;39;20677;-80
2022/12/02 02:00:51;;;;;;;21.63;14.38;;;;;;;5.59;71.51;100274.75;1086637;39;20300;-78
2022/12/02 02:01:55;;;;;;;18.13;12.73;;;;;;;5.59;71.59;100273.88;1085887;54;20039;-79
2022/12/02 02:02:56;;;;;;;20.17;13.60;;;;;;;5.55;71.68;100277.72;1086105;54;20038;-79
2022/12/02 02:04:02;;;;;;;22.42;14.43;;;;;;;5.50;71.76;100278.06;1086403;54;20042;-78
2022/12/02 02:05:06;;;;;;;19.75;13.45;;;;;;;5.49;71.63;100273.69;1086343;54;20106;-80
2022/12/02 02:06:10;;;;;;;20.80;14.07;;;;;;;5.52;71.64;100275.28;1086279;54;20058;-78
2022/12/02 02:07:12;;;;;;;19.25;13.15;;;;;;;5.54;71.63;100271.56;1087081;39;20414;-78
2022/12/02 02:08:16;;;;;;;20.63;13.63;;;;;;;5.58;71.64;100274.84;1086741;54;20039;-79
2022/12/02 02:09:18;;;;;;;19.38;12.65;;;;;;;5.62;71.67;100271.03;1086480;54;20663;-78
2022/12/02 02:10:25;;;;;;;18.70;11.98;;;;;;;5.70;71.43;100267.84;1086597;54;20651;-79
2022/12/02 02:11:26;;;;;;;17.73;11.85;;;;;;;5.74;71.00;100266.66;1086253;54;20098;-78
2022/12/02 02:12:33;;;;;;;18.90;13.60;;;;;;;5.73;71.17;100263.19;1086387;54;20046;-78
2022/12/02 02:13:35;;;;;;;17.40;12.20;;;;;;;5.75;71.00;100265.72;1086880;46;20061;-78
2022/12/02 02:14:39;;;;;;;18.92;12.88;;;;;;;5.73;70.96;100262.31;1086583;54;20035;-79
2022/12/02 02:15:42;;;;;;;17.63;11.63;;;;;;;5.73;71.09;100264.97;1086255;54;20050;-78
2022/12/02 02:16:47;;;;;;;18.75;12.55;;;;;;;5.71;70.81;100262.44;1086406;54;20065;-79
2022/12/02 02:17:49;;;;;;;19.58;13.25;;;;;;;5.67;71.32;100266.25;1086567;54;20054;-79
2022/12/02 02:18:53;;;;;;;23.33;14.50;;;;;;;5.58;71.26;100264.22;1086531;54;20042;-79
2022/12/02 02:19:55;;;;;;;22.73;15.88;;;;;;;5.54;71.44;100260.13;1087795;39;20545;-79
2022/12/02 02:21:01;;;;;;;20.42;13.43;;;;;;;5.57;71.41;100254.59;1086547;54;20035;-78
2022/12/02 02:22:08;;;;;;;20.20;13.68;;;;;;;5.65;71.32;100254.06;1086190;54;20816;-79
2022/12/02 02:23:26;;;;;;;20.10;13.27;;;;;;;5.63;71.03;100256.81;1086451;54;20054;-79
2022/12/02 02:24:27;;;;;;;21.95;14.15;;;;;;;5.63;70.99;100254.16;1086302;54;20863;-79
2022/12/02 02:25:32;;;;;;;19.13;13.00;;;;;;;5.71;71.00;100257.13;1086452;54;20039;-79
2022/12/02 02:26:33;;;;;;;18.35;12.23;;;;;;;5.70;71.07;100260.72;1086120;54;20053;-79
2022/12/02 02:27:38;;;;;;;16.70;11.80;;;;;;;5.71;70.93;100254.47;1086334;54;20654;-78
2022/12/02 02:28:39;;;;;;;20.70;13.60;;;;;;;5.66;71.01;100261.91;1087087;39;20880;-79
2022/12/02 02:29:43;;;;;;;19.63;13.32;;;;;;;5.72;70.97;100257.97;1086458;54;20098;-78
2022/12/02 02:30:45;;;;;;;21.80;13.88;;;;;;;5.65;71.05;100262.00;1086846;39;20568;-79
2022/12/02 02:31:49;;;;;;;20.10;13.75;;;;;;;5.65;70.88;100260.22;1086182;54;20069;-79
2022/12/02 02:32:51;;;;;;;18.73;12.43;;;;;;;5.63;71.02;100259.47;1086304;54;20038;-79
2022/12/02 02:33:55;;;;;;;17.25;12.55;;;;;;;5.68;71.29;100251.19;1086570;54;20058;-79
2022/12/02 02:34:57;;;;;;;19.05;13.70;;;;;;;5.65;70.91;100249.63;1086241;54;20046;-80
2022/12/02 02:36:02;;;;;;;20.65;13.57;;;;;;;5.56;71.12;100253.75;1085671;54;20035;-80
2022/12/02 02:37:04;;;;;;;23.58;13.85;;;;;;;5.51;71.30;100249.72;1086322;47;20038;-80
2022/12/02 02:38:12;;;;;;;22.67;13.07;;;;;;;5.51;71.59;100244.41;1086547;54;20030;-78
2022/12/02 02:39:16;;;;;;;22.38;14.73;;;;;;;5.46;71.49;100250.91;1086384;54;20034;-79
2022/12/02 02:40:22;;;;;;;20.33;14.05;;;;;;;5.51;71.31;100249.72;1086359;54;20036;-78
2022/12/02 02:41:23;;;;;;;19.33;13.07;;;;;;;5.53;71.39;100248.66;1086294;54;21134;-78
2022/12/02 02:42:28;;;;;;;20.33;13.07;;;;;;;5.56;71.50;100248.44;1086284;54;20034;-80
2022/12/02 02:43:31;;;;;;;19.45;13.82;;;;;;;5.62;71.17;100249.81;1086400;54;20561;-79
2022/12/02 02:44:35;;;;;;;20.55;13.98;;;;;;;5.58;71.25;100249.19;1086314;54;20066;-79
2022/12/02 02:45:40;;;;;;;20.00;12.98;;;;;;;5.62;71.10;100252.47;1086248;54;20710;-79
2022/12/02 02:46:44;;;;;;;21.83;14.57;;;;;;;5.56;71.42;100248.44;1086375;54;20587;-79
2022/12/02 02:47:47;;;;;;;21.67;14.30;;;;;;;5.53;71.37;100250.47;1086437;54;20097;-78
2022/12/02 02:48:52;;;;;;;20.10;13.90;;;;;;;5.53;71.38;100245.16;1086321;54;20043;-79
2022/12/02 02:49:54;;;;;;;20.55;13.82;;;;;;;5.52;71.48;100246.97;1086519;46;20041;-79
2022/12/02 02:50:58;;;;;;;21.20;14.07;;;;;;;5.45;71.67;100246.56;1086123;54;20034;-80
2022/12/02 02:52:00;;;;;;;22.40;15.23;;;;;;;5.39;71.91;100244.31;1086167;54;20037;-77
2022/12/02 02:53:04;;;;;;;21.35;14.13;;;;;;;5.41;71.67;100250.34;1086157;54;20041;-79
2022/12/02 02:54:06;;;;;;;22.92;14.48;;;;;;;5.45;71.83;100259.81;1086365;54;20540;-79
2022/12/02 02:55:19;;;;;;;19.45;13.68;;;;;;;5.42;71.69;100246.75;1086230;54;20042;-79
2022/12/02 02:56:21;;;;;;;22.02;14.10;;;;;;;5.40;71.90;100242.50;1086148;54;20065;-80
2022/12/02 02:57:25;;;;;;;22.90;15.00;;;;;;;5.41;71.84;100244.22;1086381;54;20732;-79
2022/12/02 02:58:27;;;;;;;24.42;14.85;;;;;;;5.41;72.05;100249.53;1086210;54;20038;-79
2022/12/02 02:59:31;;;;;;;20.13;13.63;;;;;;;5.40;71.88;100243.34;1086486;54;20038;-79
2022/12/02 03:00:32;;;;;;;23.77;15.93;;;;;;;5.38;71.98;100244.41;1087061;31;20693;-80
2022/12/02 03:01:38;;;;;;;21.35;14.95;;;;;;;5.40;72.04;100248.66;1086410;54;20769;-79
2022/12/02 03:02:41;;;;;;;21.38;13.50;;;;;;;5.42;71.84;100246.75;1087506;46;20046;-79
2022/12/02 03:03:48;;;;;;;21.13;14.35;;;;;;;5.41;72.15;100244.22;1086255;54;20038;-79
2022/12/02 03:04:50;;;;;;;21.55;13.70;;;;;;;5.41;72.14;100242.41;1086260;54;20103;-79
2022/12/02 03:05:56;;;;;;;21.70;14.13;;;;;;;5.37;72.08;100243.59;1086713;54;20053;-80
2022/12/02 03:06:57;;;;;;;22.50;14.35;;;;;;;5.32;72.57;100240.38;1086533;54;20090;-80
2022/12/02 03:08:02;;;;;;;22.17;14.85;;;;;;;5.37;72.37;100235.63;1085985;54;20119;-79
2022/12/02 03:09:07;;;;;;;21.45;14.00;;;;;;;5.36;72.20;100236.59;1085930;54;20050;-79
2022/12/02 03:10:15;;;;;;;24.17;14.70;;;;;;;5.29;72.46;100241.47;1086033;54;20038;-79
2022/12/02 03:11:16;;;;;;;21.70;13.93;;;;;;;5.29;72.56;100240.63;1085950;54;20197;-80
2022/12/02 03:12:21;;;;;;;23.55;15.27;;;;;;;5.30;72.43;100229.03;1086179;54;20097;-79
2022/12/02 03:13:22;;;;;;;21.30;14.63;;;;;;;5.34;72.37;100235.00;1086248;54;20130;-79
2022/12/02 03:14:28;;;;;;;22.35;14.68;;;;;;;5.31;72.71;100228.94;1086098;54;20069;-78
2022/12/02 03:15:30;;;;;;;24.63;14.60;;;;;;;5.28;72.64;100238.91;1086090;54;20061;-78
2022/12/02 03:16:34;;;;;;;22.85;15.50;;;;;;;5.26;72.77;100230.22;1086185;54;20572;-79
2022/12/02 03:17:36;;;;;;;24.63;16.15;;;;;;;5.22;73.12;100231.38;1086076;54;21101;-78
2022/12/02 03:18:42;;;;;;;25.40;15.93;;;;;;;5.15;72.89;100234.44;1086170;54;20041;-79
2022/12/02 03:19:47;;;;;;;24.10;15.32;;;;;;;5.21;72.88;100227.03;1085935;54;20141;-79
2022/12/02 03:20:49;;;;;;;25.17;14.82;;;;;;;5.18;72.84;100227.25;1086025;54;20054;-79
2022/12/02 03:21:53;;;;;;;23.52;14.68;;;;;;;5.17;73.19;100230.84;1085862;54;20156;-79
2022/12/02 03:22:56;;;;;;;23.58;14.52;;;;;;;5.20;72.84;100226.19;1085999;54;20577;-79
2022/12/02 03:24:02;;;;;;;22.98;14.85;;;;;;;5.29;72.92;100230.03;1086188;54;20034;-80
2022/12/02 03:25:07;;;;;;;22.05;14.32;;;;;;;5.36;72.43;100231.28;1086171;54;20038;-79
2022/12/02 03:26:14;;;;;;;21.77;13.82;;;;;;;5.38;72.37;100224.06;1085994;54;20034;-80
2022/12/02 03:27:16;;;;;;;22.63;14.18;;;;;;;5.36;72.21;100230.41;1086276;54;20991;-79
2022/12/02 03:28:20;;;;;;;23.13;15.40;;;;;;;5.27;72.57;100229.28;1086276;54;20054;-80
2022/12/02 03:29:22;;;;;;;22.05;15.45;;;;;;;5.22;72.63;100220.75;1085891;54;20053;-80
2022/12/02 03:30:26;;;;;;;25.15;16.13;;;;;;;5.18;72.87;100224.59;1085993;54;20109;-79
2022/12/02 03:31:29;;;;;;;21.52;15.10;;;;;;;5.13;73.01;100219.63;1086167;54;20034;-79
2022/12/02 03:32:34;;;;;;;25.65;16.20;;;;;;;5.19;72.77;100228.94;1086368;54;20026;-79
2022/12/02 03:33:36;;;;;;;23.25;15.55;;;;;;;5.12;72.96;100224.06;1086259;54;20053;-78
2022/12/02 03:34:43;;;;;;;21.02;14.32;;;;;;;5.17;72.74;100228.19;1086266;54;20043;-77
2022/12/02 03:35:44;;;;;;;22.80;15.00;;;;;;;5.17;73.06;100222.91;1086495;54;20034;-80
2022/12/02 03:36:48;;;;;;;23.58;16.33;;;;;;;5.21;72.78;100227.03;1086067;54;20049;-80
2022/12/02 03:37:50;;;;;;;23.15;15.70;;;;;;;5.23;72.92;100218.03;1086289;54;20088;-77
2022/12/02 03:38:55;;;;;;;25.42;15.70;;;;;;;5.24;72.58;100225.00;1086239;54;20038;-81
2022/12/02 03:39:56;;;;;;;24.05;15.95;;;;;;;5.17;72.89;100222.91;1086249;54;20042;-81
2022/12/02 03:41:01;;;;;;;23.67;15.68;;;;;;;5.14;73.03;100227.44;1087674;39;20512;-78
2022/12/02 03:42:05;;;;;;;23.30;15.38;;;;;;;5.12;72.91;100234.66;1085968;54;20045;-80
2022/12/02 03:43:09;;;;;;;21.13;14.13;;;;;;;5.13;72.79;100223.09;1085801;54;20062;-78
2022/12/02 03:44:11;;;;;;;27.42;15.23;;;;;;;5.18;73.00;100224.59;1085982;54;20065;-80
2022/12/02 03:45:15;;;;;;;23.25;15.95;;;;;;;5.20;72.71;100227.97;1086256;54;20034;-79
2022/12/02 03:46:17;;;;;;;26.63;17.80;;;;;;;5.19;72.95;100223.66;1086255;54;20094;-80
2022/12/02 03:47:21;;;;;;;27.25;18.63;;;;;;;5.19;72.67;100226.31;1086399;54;20034;-80
2022/12/02 03:48:24;;;;;;;30.17;19.35;;;;;;;5.18;72.95;100224.59;1086375;47;20900;-79
2022/12/02 03:49:28;;;;;;;30.30;20.60;;;;;;;5.20;73.14;100222.66;1086635;39;20445;-79
2022/12/02 03:50:30;;;;;;;24.85;17.38;;;;;;;5.25;72.79;100228.53;1086292;54;20073;-79
2022/12/02 03:51:34;;;;;;;24.70;17.38;;;;;;;5.28;72.66;100221.19;1086199;54;20034;-78
2022/12/02 03:52:36;;;;;;;24.55;16.30;;;;;;;5.32;72.63;100227.13;1087211;39;20476;-77
2022/12/02 03:53:41;;;;;;;28.95;18.98;;;;;;;5.32;72.73;100224.47;1086462;54;20026;-78
2022/12/02 03:54:42;;;;;;;26.80;17.90;;;;;;;5.36;72.21;100225.97;1086326;54;20639;-77
2022/12/02 03:55:47;;;;;;;24.10;16.25;;;;;;;5.41;72.34;100218.53;1086821;39;20689;-78
2022/12/02 03:56:48;;;;;;;24.67;15.70;;;;;;;5.45;72.21;100224.47;1086335;54;20050;-79
2022/12/02 03:57:55;;;;;;;22.65;15.32;;;;;;;5.52;72.14;100225.75;1086808;39;20544;-77
2022/12/02 03:58:56;;;;;;;20.52;13.80;;;;;;;5.57;72.14;100222.78;1086319;54;20747;-78
2022/12/02 04:00:01;;;;;;;20.40;13.93;;;;;;;5.60;71.75;100219.88;1086329;54;20038;-78
2022/12/02 04:01:03;;;;;;;23.15;15.27;;;;;;;5.50;72.15;100210.88;1086313;54;20054;-78
2022/12/02 04:02:07;;;;;;;23.48;16.00;;;;;;;5.37;71.88;100219.72;1086372;54;20042;-80
2022/12/02 04:03:09;;;;;;;21.05;14.38;;;;;;;5.39;72.38;100215.13;1086206;54;20030;-78
2022/12/02 04:04:16;;;;;;;21.98;14.77;;;;;;;5.38;72.21;100212.59;1086668;39;20563;-78
2022/12/02 04:05:22;;;;;;;22.42;14.80;;;;;;;5.37;72.32;100210.91;1086417;54;20034;-77
2022/12/02 04:06:26;;;;;;;22.90;15.73;;;;;;;5.33;72.16;100215.56;1086510;47;21014;-77
2022/12/02 04:07:29;;;;;;;23.10;15.23;;;;;;;5.29;72.33;100214.94;1086107;54;20053;-78
2022/12/02 04:08:33;;;;;;;21.85;15.02;;;;;;;5.29;72.37;100220.25;1086248;54;20031;-77
2022/12/02 04:09:35;;;;;;;25.45;15.35;;;;;;;5.29;72.55;100216.75;1085979;54;20110;-77
2022/12/02 04:10:39;;;;;;;21.52;14.73;;;;;;;5.33;72.47;100204.13;1086395;54;20793;-77
2022/12/02 04:11:40;;;;;;;25.83;16.20;;;;;;;5.29;72.56;100211.47;1086174;54;20046;-78
2022/12/02 04:12:44;;;;;;;19.77;13.90;;;;;;;5.31;72.51;100207.75;1086209;54;20038;-78
2022/12/02 04:13:49;;;;;;;29.92;17.05;;;;;;;5.25;72.21;100202.84;1086126;54;20043;-79
2022/12/02 04:14:53;;;;;;;22.58;15.02;;;;;;;5.24;72.45;100205.63;1086385;54;20031;-78
2022/12/02 04:15:54;;;;;;;23.83;16.67;;;;;;;5.24;72.80;100208.25;1086280;54;20058;-77
2022/12/02 04:16:58;;;;;;;21.20;14.07;;;;;;;5.24;72.52;100200.31;1086223;54;20030;-78
2022/12/02 04:18:00;;;;;;;21.52;14.63;;;;;;;5.30;72.68;100199.88;1086827;54;20034;-78
2022/12/02 04:19:04;;;;;;;20.77;13.68;;;;;;;5.37;72.36;100200.31;1086642;54;20042;-79
2022/12/02 04:20:07;;;;;;;20.50;13.23;;;;;;;5.41;72.14;100197.31;1086610;54;20042;-78
2022/12/02 04:21:11;;;;;;;19.55;13.20;;;;;;;5.46;72.01;100192.56;1086704;54;20034;-79
2022/12/02 04:22:13;;;;;;;23.10;14.27;;;;;;;5.40;72.38;100200.09;1086522;54;20038;-79
2022/12/02 04:23:17;;;;;;;21.98;14.30;;;;;;;5.40;72.25;100206.22;1086646;54;20038;-78
2022/12/02 04:24:19;;;;;;;21.25;14.50;;;;;;;5.38;72.39;100188.75;1086690;54;20046;-78
2022/12/02 04:25:23;;;;;;;22.05;14.23;;;;;;;5.38;72.20;100197.56;1086661;54;20045;-79
2022/12/02 04:26:24;;;;;;;23.05;14.55;;;;;;;5.33;72.47;100194.38;1086554;54;20115;-79
2022/12/02 04:27:28;;;;;;;24.85;15.27;;;;;;;5.38;72.27;100186.09;1086512;54;20038;-78
2022/12/02 04:28:30;;;;;;;20.90;13.95;;;;;;;5.41;72.36;100186.72;1086802;54;20042;-79
2022/12/02 04:29:37;;;;;;;23.48;16.10;;;;;;;5.39;72.31;100193.09;1086661;54;20030;-79
2022/12/02 04:30:38;;;;;;;21.20;14.25;;;;;;;5.31;72.62;100188.31;1086405;54;20077;-79
2022/12/02 04:31:42;;;;;;;24.25;16.38;;;;;;;5.29;72.71;100191.09;1086442;54;20061;-79
2022/12/02 04:32:44;;;;;;;24.58;14.75;;;;;;;5.24;72.77;100189.72;1086792;54;20031;-79
2022/12/02 04:33:48;;;;;;;24.55;15.88;;;;;;;5.21;73.04;100184.63;1086451;54;20038;-77
2022/12/02 04:34:50;;;;;;;24.25;16.30;;;;;;;5.16;73.09;100182.28;1086526;54;20069;-79
2022/12/02 04:35:54;;;;;;;22.77;15.90;;;;;;;5.14;72.94;100179.75;1086749;54;20069;-79
2022/12/02 04:36:55;;;;;;;22.48;14.25;;;;;;;5.23;72.80;100193.31;1086399;54;20046;-79
2022/12/02 04:37:59;;;;;;;21.83;13.95;;;;;;;5.32;72.79;100192.66;1086554;54;20034;-78
2022/12/02 04:39:01;;;;;;;22.50;15.20;;;;;;;5.37;72.43;100189.69;1087633;46;20042;-78
2022/12/02 04:40:05;;;;;;;23.38;15.20;;;;;;;5.36;72.39;100180.91;1086819;54;20035;-78
2022/12/02 04:41:10;;;;;;;18.63;13.45;;;;;;;5.44;72.28;100186.50;1086757;54;20074;-79
2022/12/02 04:42:11;;;;;;;21.75;14.93;;;;;;;5.38;72.49;100183.44;1086413;54;20102;-78
2022/12/02 04:43:15;;;;;;;24.50;15.48;;;;;;;5.36;72.50;100185.34;1086612;54;20038;-77
2022/12/02 04:44:17;;;;;;;25.35;16.65;;;;;;;5.28;72.68;100183.25;1086732;54;20785;-78
2022/12/02 04:45:23;;;;;;;26.23;16.00;;;;;;;5.32;72.60;100176.75;1086801;54;20038;-78
2022/12/02 04:46:25;;;;;;;23.85;14.90;;;;;;;5.38;72.58;100178.13;1086699;47;21022;-77
2022/12/02 04:47:30;;;;;;;23.83;15.10;;;;;;;5.42;72.49;100177.81;1086668;54;20038;-78
2022/12/02 04:48:31;;;;;;;22.45;15.55;;;;;;;5.43;72.27;100179.50;1086822;54;20106;-79
2022/12/02 04:49:35;;;;;;;23.52;15.35;;;;;;;5.35;72.26;100170.38;1086776;54;20042;-77
2022/12/02 04:50:37;;;;;;;23.15;15.13;;;;;;;5.31;72.65;100186.53;1086726;54;20057;-76
2022/12/02 04:51:41;;;;;;;24.33;16.40;;;;;;;5.26;72.80;100188.63;1086718;54;20038;-79
2022/12/02 04:52:42;;;;;;;24.33;16.08;;;;;;;5.18;73.03;100184.84;1087283;39;20536;-78
2022/12/02 04:53:46;;;;;;;23.48;15.48;;;;;;;5.22;72.75;100181.88;1086692;54;20042;-78
2022/12/02 04:54:48;;;;;;;27.55;16.27;;;;;;;5.15;73.01;100178.78;1090322;39;21051;-79
2022/12/02 04:55:52;;;;;;;26.75;16.77;;;;;;;5.14;73.41;100181.56;1087840;39;20419;-80